Time;durP1;ratioP1;P1;durP2;ratioP2;P2;SDS_P1;SDS_P2;PMS_P1;PMS_P2;Temp;Humidity;BMP_temperature;BMP_pressure;BME280_temperature;BME280_humidity;BME280_pressure;Samples;Min_cycle;Max_cycle;Signal;HPM_P1;HPM_P2
2023/06/26 00:00:13;;;;;;;7.57;5.80;;;;;;;;;;5027225;28;20648;-71
2023/06/26 00:03:17;;;;;;;9.27;6.87;;;;;;;;;;5016808;28;20201;-71
2023/06/26 00:06:24;;;;;;;9.17;6.77;;;;;;;;;;5016284;28;20177;-71
2023/06/26 00:09:28;;;;;;;7.73;6.13;;;;;;;;;;5016521;28;20207;-71
2023/06/26 00:12:32;;;;;;;9.37;6.83;;;;;;;;;;5016443;28;20209;-71
2023/06/26 00:15:36;;;;;;;7.40;6.60;;;;;;;;;;5016922;28;20185;-71
2023/06/26 00:18:41;;;;;;;6.73;6.03;;;;;;;;;;5015809;28;20186;-71
2023/06/26 00:21:48;;;;;;;7.23;6.43;;;;;;;;;;5016654;28;20221;-71
2023/06/26 00:24:53;;;;;;;8.23;6.40;;;;;;;;;;5016171;28;20201;-71
2023/06/26 00:27:57;;;;;;;8.67;6.67;;;;;;;;;;5015333;28;20209;-71
2023/06/26 00:31:01;;;;;;;8.17;6.20;;;;;;;;;;5026580;28;20645;-71
2023/06/26 00:34:07;;;;;;;7.40;6.53;;;;;;;;;;5015452;28;20177;-71
2023/06/26 00:37:11;;;;;;;7.50;5.97;;;;;;;;;;5026573;28;20197;-71
2023/06/26 00:40:16;;;;;;;7.43;6.37;;;;;;;;;;4992963;28;20201;-71
2023/06/26 00:43:20;;;;;;;7.43;6.13;;;;;;;;;;5026609;28;20225;-71
2023/06/26 00:46:26;;;;;;;8.67;6.63;;;;;;;;;;5015215;28;20201;-71
2023/06/26 00:49:30;;;;;;;7.60;5.70;;;;;;;;;;5015187;28;20181;-71
2023/06/26 00:52:35;;;;;;;7.27;6.00;;;;;;;;;;5026494;28;20683;-71
2023/06/26 00:55:40;;;;;;;7.63;6.40;;;;;;;;;;5026130;28;20197;-71
2023/06/26 00:58:45;;;;;;;7.40;6.20;;;;;;;;;;5026156;28;20201;-71
2023/06/26 01:01:49;;;;;;;8.40;6.57;;;;;;;;;;5014531;28;20229;-71
2023/06/26 01:04:53;;;;;;;8.93;7.00;;;;;;;;;;5026278;28;20526;-71
2023/06/26 01:07:58;;;;;;;7.47;6.40;;;;;;;;;;5013763;28;20545;-71
2023/06/26 01:11:03;;;;;;;7.70;6.43;;;;;;;;;;5026384;28;20182;-71
2023/06/26 01:14:08;;;;;;;7.93;6.33;;;;;;;;;;5025816;28;20174;-71
2023/06/26 01:17:14;;;;;;;6.77;5.53;;;;;;;;;;5014827;28;20526;-71
2023/06/26 01:20:19;;;;;;;8.30;6.20;;;;;;;;;;5014560;28;20198;-71
2023/06/26 01:23:39;;;;;;;6.90;6.07;;;;;;;;;;5014178;28;20225;-71
2023/06/26 01:26:44;;;;;;;7.07;6.27;;;;;;;;;;5026142;28;20182;-71
2023/06/26 01:29:54;;;;;;;7.77;5.70;;;;;;;;;;5024948;28;20181;-71
2023/06/26 01:32:59;;;;;;;7.60;6.20;;;;;;;;;;5014827;28;20213;-71
2023/06/26 01:36:03;;;;;;;6.70;5.83;;;;;;;;;;5015474;28;20625;-71
2023/06/26 01:39:08;;;;;;;6.97;5.60;;;;;;;;;;5025634;28;20629;-71
2023/06/26 01:42:12;;;;;;;7.00;6.00;;;;;;;;;;5015103;28;20225;-71
2023/06/26 01:45:26;;;;;;;8.03;5.87;;;;;;;;;;5002973;28;20185;-71
2023/06/26 01:48:36;;;;;;;7.83;6.33;;;;;;;;;;5025522;28;20182;-71
2023/06/26 01:51:59;;;;;;;7.23;5.77;;;;;;;;;;5014646;28;20225;-71
2023/06/26 01:55:25;;;;;;;5.87;5.13;;;;;;;;;;5014018;28;20181;-71
2023/06/26 01:58:31;;;;;;;6.97;5.90;;;;;;;;;;5025342;28;20632;-71
2023/06/26 02:01:35;;;;;;;8.40;5.63;;;;;;;;;;5014136;28;20217;-71
2023/06/26 02:04:41;;;;;;;8.90;6.03;;;;;;;;;;5013848;28;20174;-71
2023/06/26 02:08:10;;;;;;;8.33;5.83;;;;;;;;;;5014609;28;20200;-71
2023/06/26 02:11:14;;;;;;;6.60;5.37;;;;;;;;;;4974214;28;20227;-73
2023/06/26 02:14:18;;;;;;;7.23;6.23;;;;;;;;;;4963574;28;20179;-73
2023/06/26 02:17:22;;;;;;;7.07;5.90;;;;;;;;;;4963377;28;20182;-73
2023/06/26 02:20:26;;;;;;;8.30;5.83;;;;;;;;;;4975326;28;20665;-73
2023/06/26 02:23:30;;;;;;;13.27;6.00;;;;;;;;;;4975053;28;20234;-73
2023/06/26 02:26:34;;;;;;;7.87;5.97;;;;;;;;;;4975525;28;20179;-73
2023/06/26 02:29:40;;;;;;;7.90;6.13;;;;;;;;;;4974951;28;20183;-73
2023/06/26 02:32:46;;;;;;;7.20;5.50;;;;;;;;;;4974592;28;20210;-73
2023/06/26 02:35:52;;;;;;;7.80;6.33;;;;;;;;;;4974598;28;20182;-73
2023/06/26 02:38:57;;;;;;;11.43;6.13;;;;;;;;;;4975201;28;20183;-73
2023/06/26 02:42:01;;;;;;;7.47;6.17;;;;;;;;;;4975128;28;20218;-73
2023/06/26 02:45:05;;;;;;;7.00;6.30;;;;;;;;;;4962814;28;20179;-73
2023/06/26 02:48:10;;;;;;;7.20;6.23;;;;;;;;;;4973829;28;20190;-73
2023/06/26 02:51:15;;;;;;;9.13;5.70;;;;;;;;;;4974017;28;20214;-73
2023/06/26 02:54:19;;;;;;;6.53;5.43;;;;;;;;;;4973728;28;20630;-73
2023/06/26 02:57:25;;;;;;;5.83;4.70;;;;;;;;;;4973968;28;20195;-74
2023/06/26 03:00:29;;;;;;;6.30;4.70;;;;;;;;;;4973970;28;20182;-74
2023/06/26 03:03:40;;;;;;;8.27;5.30;;;;;;;;;;4973545;28;20207;-73
2023/06/26 03:06:45;;;;;;;6.70;5.43;;;;;;;;;;4974149;28;20625;-73
2023/06/26 03:09:50;;;;;;;7.00;5.73;;;;;;;;;;4974345;28;20206;-73
2023/06/26 03:12:54;;;;;;;7.43;5.53;;;;;;;;;;4973524;28;20210;-73
2023/06/26 03:15:58;;;;;;;6.47;5.27;;;;;;;;;;4973540;28;20645;-73
2023/06/26 03:19:03;;;;;;;6.57;5.73;;;;;;;;;;4973778;28;20186;-74
2023/06/26 03:22:08;;;;;;;9.87;5.77;;;;;;;;;;4973710;28;20697;-73
2023/06/26 03:25:13;;;;;;;7.83;6.40;;;;;;;;;;4973965;28;20190;-73
2023/06/26 03:28:17;;;;;;;8.07;6.10;;;;;;;;;;4974548;28;20535;-74
2023/06/26 03:31:21;;;;;;;7.73;5.93;;;;;;;;;;4976922;28;20566;-73
2023/06/26 03:34:25;;;;;;;7.13;6.27;;;;;;;;;;4977294;28;20634;-73
2023/06/26 03:37:29;;;;;;;7.40;5.70;;;;;;;;;;4978321;28;20630;-73
2023/06/26 03:40:33;;;;;;;7.40;5.83;;;;;;;;;;4977738;28;20183;-73
2023/06/26 03:43:37;;;;;;;8.80;6.00;;;;;;;;;;4965963;28;20222;-73
2023/06/26 03:46:56;;;;;;;9.63;6.40;;;;;;;;;;4977330;28;20187;-73
2023/06/26 03:50:01;;;;;;;8.30;6.57;;;;;;;;;;4977313;28;20187;-74
2023/06/26 03:53:05;;;;;;;7.30;5.60;;;;;;;;;;4977182;28;20206;-73
2023/06/26 03:56:10;;;;;;;7.67;5.60;;;;;;;;;;4976926;28;20183;-73
2023/06/26 03:59:14;;;;;;;9.10;6.20;;;;;;;;;;4965825;28;20183;-74
2023/06/26 04:02:18;;;;;;;7.93;6.23;;;;;;;;;;4977120;28;20217;-73
2023/06/26 04:05:22;;;;;;;11.27;5.80;;;;;;;;;;4966200;28;20179;-73
2023/06/26 04:08:26;;;;;;;7.20;5.83;;;;;;;;;;4977648;28;20543;-74
2023/06/26 04:11:31;;;;;;;7.23;6.10;;;;;;;;;;4965817;28;20214;-74
2023/06/26 04:14:35;;;;;;;7.90;6.03;;;;;;;;;;4976800;28;20186;-74
2023/06/26 04:17:39;;;;;;;7.53;5.50;;;;;;;;;;4977702;28;20183;-74
2023/06/26 04:21:13;;;;;;;7.90;5.80;;;;;;;;;;4976434;28;20194;-74
2023/06/26 04:24:17;;;;;;;6.00;5.40;;;;;;;;;;4976692;28;20210;-73
2023/06/26 04:27:21;;;;;;;8.07;6.03;;;;;;;;;;4977417;28;20202;-74
2023/06/26 04:30:25;;;;;;;7.90;6.23;;;;;;;;;;4976568;28;20183;-74
2023/06/26 04:33:29;;;;;;;8.83;6.83;;;;;;;;;;4976523;28;20179;-74
2023/06/26 04:36:38;;;;;;;6.10;5.50;;;;;;;;;;4965389;28;20183;-74
2023/06/26 04:39:42;;;;;;;8.70;6.10;;;;;;;;;;4976955;28;20187;-73
2023/06/26 04:42:46;;;;;;;6.73;6.03;;;;;;;;;;4976776;28;20214;-74
2023/06/26 04:45:51;;;;;;;8.53;6.30;;;;;;;;;;4977060;28;20199;-73
2023/06/26 04:48:57;;;;;;;7.17;6.00;;;;;;;;;;4976998;28;20198;-74
2023/06/26 04:52:02;;;;;;;11.03;6.53;;;;;;;;;;4965107;28;20686;-74
2023/06/26 04:55:06;;;;;;;8.37;7.17;;;;;;;;;;4976641;28;20203;-74
2023/06/26 04:58:10;;;;;;;7.27;5.87;;;;;;;;;;4976550;28;20202;-74
2023/06/26 05:01:15;;;;;;;11.33;6.07;;;;;;;;;;4975668;28;20558;-73
2023/06/26 05:04:19;;;;;;;8.37;6.13;;;;;;;;;;4975555;28;20222;-74
2023/06/26 05:07:23;;;;;;;8.07;7.03;;;;;;;;;;4976636;28;20179;-74
2023/06/26 05:10:27;;;;;;;9.40;6.70;;;;;;;;;;4976459;28;20207;-73
2023/06/26 05:13:31;;;;;;;9.40;6.40;;;;;;;;;;4976133;28;20199;-73
2023/06/26 05:16:36;;;;;;;10.47;7.20;;;;;;;;;;4976438;28;20179;-73
2023/06/26 05:19:40;;;;;;;10.17;6.90;;;;;;;;;;4964760;28;20187;-73
2023/06/26 05:22:45;;;;;;;8.67;6.30;;;;;;;;;;4975245;28;20222;-73
2023/06/26 05:25:50;;;;;;;8.13;6.93;;;;;;;;;;4964540;28;20183;-73
2023/06/26 05:28:54;;;;;;;10.17;7.40;;;;;;;;;;4976388;28;20183;-73
2023/06/26 05:31:59;;;;;;;11.13;6.83;;;;;;;;;;4964099;28;20214;-73
2023/06/26 05:35:05;;;;;;;8.57;7.20;;;;;;;;;;4976451;28;20175;-73
2023/06/26 05:38:09;;;;;;;10.93;6.83;;;;;;;;;;4975514;28;20178;-73
2023/06/26 05:41:13;;;;;;;10.70;6.80;;;;;;;;;;4975198;28;20222;-73
2023/06/26 05:44:17;;;;;;;10.93;8.37;;;;;;;;;;4975674;28;20555;-73
2023/06/26 05:47:22;;;;;;;8.17;7.37;;;;;;;;;;4974811;28;20194;-72
2023/06/26 05:50:28;;;;;;;8.97;7.37;;;;;;;;;;4975012;28;20183;-73
2023/06/26 05:53:32;;;;;;;10.17;7.20;;;;;;;;;;4975245;28;20171;-72
2023/06/26 05:56:37;;;;;;;8.43;7.10;;;;;;;;;;4976019;28;20512;-73
2023/06/26 05:59:43;;;;;;;10.03;7.10;;;;;;;;;;4975707;28;20187;-73
2023/06/26 06:02:47;;;;;;;10.40;7.53;;;;;;;;;;4963618;28;20222;-73
2023/06/26 06:05:51;;;;;;;9.97;7.33;;;;;;;;;;4975610;28;20188;-73
2023/06/26 06:08:55;;;;;;;10.63;8.37;;;;;;;;;;4975464;28;20665;-73
2023/06/26 06:12:01;;;;;;;7.87;6.30;;;;;;;;;;4975451;28;20214;-73
2023/06/26 06:15:06;;;;;;;12.13;8.50;;;;;;;;;;4975799;28;20179;-73
2023/06/26 06:18:10;;;;;;;9.97;7.53;;;;;;;;;;4975403;28;20179;-73
2023/06/26 06:21:14;;;;;;;11.67;8.00;;;;;;;;;;4974230;28;20555;-73
2023/06/26 06:24:19;;;;;;;10.27;7.70;;;;;;;;;;4975360;28;20206;-73
2023/06/26 06:27:23;;;;;;;8.23;7.30;;;;;;;;;;4975226;28;20187;-73
2023/06/26 06:30:28;;;;;;;8.87;7.30;;;;;;;;;;4975190;28;20178;-73
2023/06/26 06:33:32;;;;;;;8.77;7.30;;;;;;;;;;4974909;28;20175;-73
2023/06/26 06:36:36;;;;;;;10.00;7.00;;;;;;;;;;4975253;28;20175;-73
2023/06/26 06:39:40;;;;;;;11.40;7.10;;;;;;;;;;4974792;28;20637;-73
2023/06/26 06:42:44;;;;;;;8.63;7.30;;;;;;;;;;4974917;28;20222;-73
2023/06/26 06:45:48;;;;;;;8.33;7.17;;;;;;;;;;4974397;28;20520;-73
2023/06/26 06:48:52;;;;;;;9.23;7.13;;;;;;;;;;4973886;28;20178;-73
2023/06/26 06:51:56;;;;;;;10.40;7.13;;;;;;;;;;4974791;28;20214;-72
2023/06/26 06:55:05;;;;;;;7.00;6.30;;;;;;;;;;4974603;28;20178;-73
2023/06/26 06:58:09;;;;;;;11.30;6.63;;;;;;;;;;4974504;28;20198;-73
2023/06/26 07:01:14;;;;;;;8.27;7.03;;;;;;;;;;4974677;28;20218;-73
2023/06/26 07:04:18;;;;;;;7.77;6.50;;;;;;;;;;4973992;28;20203;-73
2023/06/26 07:07:22;;;;;;;8.87;7.27;;;;;;;;;;4974664;28;20206;-73
2023/06/26 07:10:26;;;;;;;11.97;7.67;;;;;;;;;;4974680;28;20175;-73
2023/06/26 07:13:30;;;;;;;10.13;6.83;;;;;;;;;;4974889;28;20179;-73
2023/06/26 07:16:35;;;;;;;8.67;6.77;;;;;;;;;;4974325;28;20658;-73
2023/06/26 07:19:39;;;;;;;10.17;7.67;;;;;;;;;;4974280;28;20175;-73
2023/06/26 07:22:47;;;;;;;7.67;6.87;;;;;;;;;;4974388;28;20223;-73
2023/06/26 07:25:50;;;;;;;11.50;7.70;;;;;;;;;;4973911;28;20182;-73
2023/06/26 07:28:56;;;;;;;9.87;6.73;;;;;;;;;;4974513;28;20200;-73
2023/06/26 07:32:00;;;;;;;8.87;7.20;;;;;;;;;;4974232;28;20215;-73
2023/06/26 07:35:05;;;;;;;13.13;7.03;;;;;;;;;;4973627;28;20184;-74
2023/06/26 07:38:09;;;;;;;13.63;7.33;;;;;;;;;;4974585;28;20645;-73
2023/06/26 07:41:13;;;;;;;11.73;7.22;;;;;;;;;;4974554;28;20219;-73
2023/06/26 07:44:17;;;;;;;11.45;6.70;;;;;;;;;;4974585;28;20218;-74
2023/06/26 07:47:21;;;;;;;8.73;6.82;;;;;;;;;;4974188;28;20186;-74
2023/06/26 07:50:26;;;;;;;11.45;7.05;;;;;;;;;;4974319;28;20189;-74
2023/06/26 07:53:30;;;;;;;8.52;7.32;;;;;;;;;;4974017;28;20179;-74
2023/06/26 07:56:53;;;;;;;7.93;6.88;;;;;;;;;;4973220;28;20179;-74
2023/06/26 07:59:57;;;;;;;7.85;6.78;;;;;;;;;;4973477;28;20186;-74
2023/06/26 08:03:01;;;;;;;8.13;6.32;;;;;;;;;;4974061;28;20230;-73
2023/06/26 08:06:05;;;;;;;8.50;6.32;;;;;;;;;;4973370;28;20184;-71
2023/06/26 08:09:10;;;;;;;6.88;6.18;;;;;;;;;;4996514;22;20235;-72
2023/06/26 08:12:14;;;;;;;6.78;6.13;;;;;;;;;;5012901;28;20210;-73
2023/06/26 08:15:18;;;;;;;8.13;7.05;;;;;;;;;;5013052;28;20170;-73
2023/06/26 08:18:22;;;;;;;7.43;6.10;;;;;;;;;;5016398;28;20225;-72
2023/06/26 08:21:26;;;;;;;7.70;6.75;;;;;;;;;;5015765;28;20553;-72
2023/06/26 08:24:30;;;;;;;7.47;6.35;;;;;;;;;;5004248;28;20550;-73
2023/06/26 08:27:34;;;;;;;9.38;7.50;;;;;;;;;;5016764;28;20182;-73
2023/06/26 08:30:38;;;;;;;7.70;6.47;;;;;;;;;;5015655;28;20178;-73
2023/06/26 08:33:43;;;;;;;7.07;6.40;;;;;;;;;;5016413;28;20527;-73
2023/06/26 08:36:47;;;;;;;6.85;6.10;;;;;;;;;;5016614;28;20174;-73
2023/06/26 08:39:51;;;;;;;7.18;6.45;;;;;;;;;;5016063;28;20170;-73
2023/06/26 08:42:55;;;;;;;7.47;6.40;;;;;;;;;;5016116;28;20223;-73
2023/06/26 08:46:00;;;;;;;9.35;5.88;;;;;;;;;;5004036;28;20672;-73
2023/06/26 08:49:46;;;;;;;7.95;6.30;;;;;;;;;;5015843;28;20177;-73
2023/06/26 08:53:07;;;;;;;6.55;5.85;;;;;;;;;;5016927;28;20218;-73
2023/06/26 08:56:14;;;;;;;8.00;6.25;;;;;;;;;;5015218;28;20178;-73
2023/06/26 08:59:19;;;;;;;7.30;6.05;;;;;;;;;;5015649;28;20629;-73
2023/06/26 09:02:23;;;;;;;8.20;6.00;;;;;;;;;;5015592;28;20218;-73
2023/06/26 09:05:28;;;;;;;7.32;6.60;;;;;;;;;;5015477;28;20206;-73
2023/06/26 09:08:32;;;;;;;7.00;6.30;;;;;;;;;;5014928;28;20537;-73
2023/06/26 09:11:36;;;;;;;17.33;6.85;;;;;;;;;;5014847;28;20568;-73
2023/06/26 09:14:41;;;;;;;7.03;6.32;;;;;;;;;;5013567;28;20525;-73
2023/06/26 09:17:45;;;;;;;7.40;6.63;;;;;;;;;;5013952;28;20201;-73
2023/06/26 09:20:49;;;;;;;6.47;5.80;;;;;;;;;;5002643;28;20201;-73
2023/06/26 09:23:54;;;;;;;6.60;6.00;;;;;;;;;;5013474;28;20201;-73
2023/06/26 09:26:59;;;;;;;9.98;6.70;;;;;;;;;;5013750;28;20178;-73
2023/06/26 09:30:05;;;;;;;6.47;5.88;;;;;;;;;;5014405;28;20527;-73
2023/06/26 09:33:17;;;;;;;6.93;6.13;;;;;;;;;;5001922;28;20218;-73
2023/06/26 09:36:21;;;;;;;6.63;5.82;;;;;;;;;;5014270;28;20182;-73
2023/06/26 09:39:25;;;;;;;10.93;5.38;;;;;;;;;;5013932;28;20178;-73
2023/06/26 09:42:30;;;;;;;7.82;5.60;;;;;;;;;;5013355;28;20225;-72
2023/06/26 09:45:38;;;;;;;7.13;5.90;;;;;;;;;;5013253;28;20206;-73
2023/06/26 09:48:42;;;;;;;6.25;5.45;;;;;;;;;;5013705;28;20182;-73
2023/06/26 09:51:46;;;;;;;5.75;5.25;;;;;;;;;;5012913;28;20209;-73
2023/06/26 09:54:50;;;;;;;5.55;4.95;;;;;;;;;;5013209;28;20182;-72
2023/06/26 09:57:56;;;;;;;9.55;5.68;;;;;;;;;;5012865;28;20641;-73
2023/06/26 10:01:00;;;;;;;7.13;5.47;;;;;;;;;;5014301;28;20524;-72
2023/06/26 10:04:05;;;;;;;5.60;4.72;;;;;;;;;;5013563;28;20201;-73
2023/06/26 10:07:12;;;;;;;6.10;5.07;;;;;;;;;;5013554;28;20182;-73
2023/06/26 10:10:17;;;;;;;7.45;4.53;;;;;;;;;;4977288;28;1065293;-73
2023/06/26 10:13:25;;;;;;;7.00;5.60;;;;;;;;;;5014615;28;20189;-73
2023/06/26 10:16:31;;;;;;;6.45;5.20;;;;;;;;;;5014399;28;20174;-73
2023/06/26 10:19:39;;;;;;;9.63;4.63;;;;;;;;;;5002409;28;20178;-73
2023/06/26 10:22:47;;;;;;;6.15;5.30;;;;;;;;;;5013532;28;20213;-72
2023/06/26 10:25:55;;;;;;;5.80;4.85;;;;;;;;;;5014013;28;20205;-73
2023/06/26 10:28:59;;;;;;;6.07;5.50;;;;;;;;;;5013508;28;20521;-73
2023/06/26 10:32:05;;;;;;;5.72;5.10;;;;;;;;;;5014167;28;20218;-73
2023/06/26 10:35:10;;;;;;;5.35;4.85;;;;;;;;;;5014199;28;20526;-73
2023/06/26 10:38:14;;;;;;;5.38;4.88;;;;;;;;;;5013480;28;20526;-73
2023/06/26 10:41:23;;;;;;;5.57;5.07;;;;;;;;;;5013169;28;20213;-73
2023/06/26 10:44:39;;;;;;;5.63;5.13;;;;;;;;;;5013971;28;20186;-73
2023/06/26 10:47:48;;;;;;;7.30;5.22;;;;;;;;;;5013318;28;20186;-73
2023/06/26 10:50:53;;;;;;;5.53;5.03;;;;;;;;;;5013631;28;20186;-73
2023/06/26 10:53:58;;;;;;;5.50;4.72;;;;;;;;;;5013741;28;20173;-73
2023/06/26 10:57:02;;;;;;;5.28;4.78;;;;;;;;;;5013319;28;20182;-73
2023/06/26 11:00:11;;;;;;;6.25;5.63;;;;;;;;;;5012910;28;20542;-73
2023/06/26 11:03:24;;;;;;;6.30;5.70;;;;;;;;;;5012865;28;20182;-73
2023/06/26 11:06:30;;;;;;;6.50;4.68;;;;;;;;;;5013534;28;20550;-73
2023/06/26 11:10:00;;;;;;;6.40;5.03;;;;;;;;;;5013498;28;20668;-73
2023/06/26 11:13:04;;;;;;;4.95;4.55;;;;;;;;;;5013398;28;20664;-73
2023/06/26 11:16:08;;;;;;;5.65;5.15;;;;;;;;;;5013448;28;20174;-73
2023/06/26 11:19:13;;;;;;;5.47;4.82;;;;;;;;;;5012690;28;20174;-73
2023/06/26 11:22:18;;;;;;;5.15;4.65;;;;;;;;;;5012640;28;20213;-72
2023/06/26 11:25:23;;;;;;;4.95;4.45;;;;;;;;;;5012562;28;20205;-73
2023/06/26 11:28:27;;;;;;;7.95;4.60;;;;;;;;;;5013639;28;20182;-72
2023/06/26 11:31:38;;;;;;;5.25;4.50;;;;;;;;;;5013266;28;20213;-72
2023/06/26 11:34:43;;;;;;;5.97;4.43;;;;;;;;;;5013580;28;20653;-73
2023/06/26 11:37:47;;;;;;;5.57;4.50;;;;;;;;;;5013226;28;20186;-73
2023/06/26 11:40:51;;;;;;;7.20;4.45;;;;;;;;;;5012986;28;20182;-73
2023/06/26 11:43:56;;;;;;;4.97;4.57;;;;;;;;;;5013609;28;20178;-73
2023/06/26 11:46:59;;;;;;;5.85;4.57;;;;;;;;;;5001168;28;20206;-73
2023/06/26 11:50:04;;;;;;;5.38;4.70;;;;;;;;;;5012425;28;20514;-72
2023/06/26 11:53:09;;;;;;;4.88;4.47;;;;;;;;;;5016823;28;20217;-73
2023/06/26 11:56:15;;;;;;;5.00;4.60;;;;;;;;;;5017023;28;20174;-73
2023/06/26 11:59:19;;;;;;;5.50;5.00;;;;;;;;;;5016342;28;20632;-73
2023/06/26 12:02:24;;;;;;;6.13;4.82;;;;;;;;;;5016853;28;20680;-72
2023/06/26 12:05:28;;;;;;;5.20;4.40;;;;;;;;;;5004880;28;20217;-73
2023/06/26 12:08:32;;;;;;;6.03;5.10;;;;;;;;;;5016928;28;20516;-72
2023/06/26 12:11:38;;;;;;;5.10;4.70;;;;;;;;;;5016674;28;20225;-72
2023/06/26 12:14:43;;;;;;;5.05;4.65;;;;;;;;;;5016388;28;20186;-72
2023/06/26 12:17:47;;;;;;;4.97;4.55;;;;;;;;;;5016608;28;20174;-73
2023/06/26 12:20:52;;;;;;;5.97;5.38;;;;;;;;;;5016533;28;20190;-72
2023/06/26 12:24:00;;;;;;;5.53;5.03;;;;;;;;;;5016245;28;20652;-72
2023/06/26 12:27:11;;;;;;;5.90;5.30;;;;;;;;;;5015554;28;20214;-73
2023/06/26 12:30:15;;;;;;;5.45;4.95;;;;;;;;;;5016124;28;20186;-72
2023/06/26 12:33:19;;;;;;;5.30;4.55;;;;;;;;;;5015498;28;20178;-73
2023/06/26 12:36:23;;;;;;;7.07;4.60;;;;;;;;;;5015495;28;20527;-72
2023/06/26 12:39:27;;;;;;;5.53;5.03;;;;;;;;;;5015475;28;20182;-73
2023/06/26 12:42:33;;;;;;;5.22;4.72;;;;;;;;;;5016051;28;20217;-73
2023/06/26 12:45:38;;;;;;;5.75;5.18;;;;;;;;;;5016320;28;20656;-73
2023/06/26 12:48:46;;;;;;;6.80;5.13;;;;;;;;;;5016014;28;20182;-73
2023/06/26 12:51:50;;;;;;;6.75;4.97;;;;;;;;;;5016000;28;20217;-73
2023/06/26 12:54:55;;;;;;;7.40;4.88;;;;;;;;;;5015884;28;20186;-72
2023/06/26 12:58:00;;;;;;;5.55;5.05;;;;;;;;;;5016319;28;20170;-72
2023/06/26 13:01:07;;;;;;;9.60;4.97;;;;;;;;;;5003695;28;20210;-72
2023/06/26 13:04:11;;;;;;;5.85;5.28;;;;;;;;;;5015069;28;20185;-72
2023/06/26 13:07:16;;;;;;;5.03;4.53;;;;;;;;;;5015397;28;20229;-73
2023/06/26 13:10:19;;;;;;;8.32;4.70;;;;;;;;;;5015280;28;20197;-72
2023/06/26 13:13:23;;;;;;;5.82;5.10;;;;;;;;;;5015688;28;20629;-72
2023/06/26 13:16:28;;;;;;;6.07;4.68;;;;;;;;;;5015785;28;20625;-73
2023/06/26 13:19:32;;;;;;;5.10;4.65;;;;;;;;;;5015319;28;20629;-72
2023/06/26 13:22:36;;;;;;;5.32;4.57;;;;;;;;;;5015114;28;20217;-72
2023/06/26 13:25:40;;;;;;;5.60;4.70;;;;;;;;;;5015077;28;20209;-73
2023/06/26 13:28:44;;;;;;;5.85;4.47;;;;;;;;;;5014502;28;20229;-73
2023/06/26 13:31:48;;;;;;;6.57;4.60;;;;;;;;;;5015315;28;20225;-73
2023/06/26 13:34:54;;;;;;;7.50;4.90;;;;;;;;;;5003529;28;20186;-73
2023/06/26 13:37:57;;;;;;;5.32;4.82;;;;;;;;;;4991611;28;20653;-73
2023/06/26 13:41:02;;;;;;;5.00;4.40;;;;;;;;;;5015278;28;20201;-73
2023/06/26 13:44:06;;;;;;;5.18;4.68;;;;;;;;;;5014104;28;20656;-73
2023/06/26 13:47:13;;;;;;;4.63;4.22;;;;;;;;;;5014796;28;20214;-72
2023/06/26 13:50:17;;;;;;;5.82;4.57;;;;;;;;;;5014155;28;20186;-73
2023/06/26 13:53:21;;;;;;;4.38;4.03;;;;;;;;;;5015084;28;20515;-72
2023/06/26 13:56:25;;;;;;;4.95;4.15;;;;;;;;;;5015132;28;20503;-72
2023/06/26 13:59:29;;;;;;;5.20;4.25;;;;;;;;;;5014511;28;20181;-73
2023/06/26 14:02:33;;;;;;;5.30;4.80;;;;;;;;;;5013604;28;20213;-73
2023/06/26 14:05:37;;;;;;;5.55;4.95;;;;;;;;;;5014355;28;20185;-73
2023/06/26 14:08:42;;;;;;;4.95;4.55;;;;;;;;;;5013975;28;20194;-73
2023/06/26 14:11:46;;;;;;;5.50;5.00;;;;;;;;;;5028872;22;20233;-72
2023/06/26 14:14:50;;;;;;;5.88;4.75;;;;;;;;;;5013930;28;20648;-72
2023/06/26 14:17:55;;;;;;;7.28;5.07;;;;;;;;;;5013462;28;20173;-72
2023/06/26 14:20:59;;;;;;;4.82;4.43;;;;;;;;;;5014395;28;20637;-72
2023/06/26 14:24:03;;;;;;;12.90;5.05;;;;;;;;;;5014109;28;20205;-72
2023/06/26 14:27:07;;;;;;;7.00;4.60;;;;;;;;;;5014298;28;20210;-72
2023/06/26 14:30:12;;;;;;;6.95;5.47;;;;;;;;;;5014576;28;20182;-72
2023/06/26 14:33:16;;;;;;;6.10;4.25;;;;;;;;;;5013920;28;20198;-72
2023/06/26 14:36:20;;;;;;;5.90;4.72;;;;;;;;;;5014214;28;20181;-72
2023/06/26 14:39:24;;;;;;;4.88;4.38;;;;;;;;;;5013259;28;20182;-72
2023/06/26 14:42:28;;;;;;;8.10;4.70;;;;;;;;;;5014039;28;20221;-72
2023/06/26 14:45:32;;;;;;;6.47;4.72;;;;;;;;;;5013129;28;20177;-72
2023/06/26 14:48:37;;;;;;;5.68;4.60;;;;;;;;;;5013431;28;20170;-72
2023/06/26 14:51:41;;;;;;;6.03;4.78;;;;;;;;;;5013875;28;20213;-72
2023/06/26 14:54:45;;;;;;;5.00;4.50;;;;;;;;;;5013601;28;20182;-72
2023/06/26 14:57:49;;;;;;;4.90;4.40;;;;;;;;;;5012754;28;20664;-72
2023/06/26 15:00:54;;;;;;;4.97;4.57;;;;;;;;;;5013680;28;20201;-72
2023/06/26 15:03:58;;;;;;;7.78;5.40;;;;;;;;;;5013773;28;20173;-72
2023/06/26 15:07:02;;;;;;;7.57;4.82;;;;;;;;;;5013667;28;20209;-72
2023/06/26 15:10:06;;;;;;;5.20;4.60;;;;;;;;;;5013723;28;20185;-72
2023/06/26 15:13:10;;;;;;;5.78;4.68;;;;;;;;;;5013322;28;20287;-72
2023/06/26 15:16:15;;;;;;;8.07;5.03;;;;;;;;;;5013655;28;20170;-72
2023/06/26 15:19:19;;;;;;;5.72;5.18;;;;;;;;;;5012899;28;20178;-72
2023/06/26 15:22:26;;;;;;;5.55;4.97;;;;;;;;;;5013691;28;20221;-72
2023/06/26 15:25:31;;;;;;;6.18;4.97;;;;;;;;;;5013837;28;20189;-72
2023/06/26 15:28:35;;;;;;;6.53;5.28;;;;;;;;;;5016852;28;20182;-72
2023/06/26 15:31:39;;;;;;;9.45;5.47;;;;;;;;;;5017396;28;20248;-72
2023/06/26 15:34:43;;;;;;;6.80;4.70;;;;;;;;;;5017445;28;20656;-72
2023/06/26 15:37:49;;;;;;;5.70;5.10;;;;;;;;;;5017640;28;20660;-72
2023/06/26 15:40:52;;;;;;;5.35;4.88;;;;;;;;;;5016194;28;20201;-73
2023/06/26 15:43:57;;;;;;;5.32;4.82;;;;;;;;;;5017777;28;20186;-72
2023/06/26 15:47:01;;;;;;;7.85;5.57;;;;;;;;;;5016695;28;20221;-72
2023/06/26 15:50:07;;;;;;;7.07;5.45;;;;;;;;;;5016995;28;20197;-72
2023/06/26 15:53:16;;;;;;;7.88;5.78;;;;;;;;;;5016632;28;20209;-72
2023/06/26 15:56:20;;;;;;;6.10;4.80;;;;;;;;;;5016662;28;20533;-72
2023/06/26 15:59:24;;;;;;;5.60;4.82;;;;;;;;;;5016880;28;20182;-72
2023/06/26 16:02:28;;;;;;;5.57;5.03;;;;;;;;;;5004361;28;20559;-72
2023/06/26 16:05:32;;;;;;;6.43;5.03;;;;;;;;;;5016477;28;20194;-72
2023/06/26 16:08:37;;;;;;;6.78;5.05;;;;;;;;;;5015649;28;20194;-72
2023/06/26 16:11:41;;;;;;;7.00;5.57;;;;;;;;;;5015646;28;20225;-72
2023/06/26 16:14:46;;;;;;;8.30;5.07;;;;;;;;;;5016691;28;20636;-72
2023/06/26 16:17:50;;;;;;;5.47;4.97;;;;;;;;;;5016463;28;20527;-72
2023/06/26 16:20:54;;;;;;;10.20;5.47;;;;;;;;;;5016948;28;20178;-72
2023/06/26 16:24:00;;;;;;;5.13;4.63;;;;;;;;;;5016518;28;20178;-72
2023/06/26 16:27:04;;;;;;;6.47;5.18;;;;;;;;;;5015492;28;20206;-72
2023/06/26 16:30:09;;;;;;;6.63;5.07;;;;;;;;;;5016652;28;20178;-72
2023/06/26 16:33:13;;;;;;;9.55;5.57;;;;;;;;;;5016005;28;20178;-72
2023/06/26 16:36:17;;;;;;;8.10;5.28;;;;;;;;;;5015926;28;20636;-72
2023/06/26 16:39:21;;;;;;;6.25;5.55;;;;;;;;;;5015900;28;20625;-72
2023/06/26 16:42:25;;;;;;;8.32;5.80;;;;;;;;;;5016062;28;20565;-72
2023/06/26 16:45:29;;;;;;;7.57;5.60;;;;;;;;;;5016048;28;20193;-72
2023/06/26 16:48:33;;;;;;;5.97;5.38;;;;;;;;;;5015929;28;20559;-72
2023/06/26 16:51:37;;;;;;;7.90;5.70;;;;;;;;;;5016116;28;20224;-73
2023/06/26 16:54:42;;;;;;;16.45;6.07;;;;;;;;;;5015646;28;20170;-73
2023/06/26 16:57:46;;;;;;;6.63;5.00;;;;;;;;;;5015862;28;20176;-73
2023/06/26 17:00:50;;;;;;;11.05;5.18;;;;;;;;;;5014674;28;20185;-73
2023/06/26 17:03:54;;;;;;;7.95;5.53;;;;;;;;;;5003402;28;20201;-73
2023/06/26 17:06:58;;;;;;;8.43;6.10;;;;;;;;;;5015664;28;20566;-73
2023/06/26 17:10:04;;;;;;;9.93;5.95;;;;;;;;;;5014780;28;20176;-73
2023/06/26 17:13:08;;;;;;;6.75;5.85;;;;;;;;;;5015252;28;20561;-73
2023/06/26 17:16:12;;;;;;;8.57;6.50;;;;;;;;;;5015696;28;20185;-73
2023/06/26 17:19:16;;;;;;;10.23;5.63;;;;;;;;;;5015674;28;20513;-73
2023/06/26 17:22:21;;;;;;;10.95;6.35;;;;;;;;;;5014522;28;20220;-73
2023/06/26 17:25:25;;;;;;;16.58;6.13;;;;;;;;;;5014510;28;20185;-72
2023/06/26 17:28:30;;;;;;;9.98;6.30;;;;;;;;;;5014098;28;20230;-72
2023/06/26 17:31:35;;;;;;;21.95;9.32;;;;;;;;;;5014835;28;20223;-73
2023/06/26 17:34:39;;;;;;;12.25;7.22;;;;;;;;;;5015146;28;20182;-72
2023/06/26 17:37:44;;;;;;;8.20;5.87;;;;;;;;;;5002908;28;20521;-73
2023/06/26 17:40:48;;;;;;;7.77;4.90;;;;;;;;;;5014972;28;20177;-72
2023/06/26 17:43:52;;;;;;;12.80;5.37;;;;;;;;;;5014971;28;20183;-72
2023/06/26 17:46:56;;;;;;;9.83;5.60;;;;;;;;;;5014848;28;20209;-73
2023/06/26 17:50:03;;;;;;;11.20;5.87;;;;;;;;;;5014194;28;20660;-73
2023/06/26 17:53:06;;;;;;;10.17;5.93;;;;;;;;;;5014425;28;20213;-73
2023/06/26 17:56:11;;;;;;;6.97;5.63;;;;;;;;;;5014991;28;20186;-73
2023/06/26 17:59:15;;;;;;;6.97;5.87;;;;;;;;;;5014276;28;20529;-73
2023/06/26 18:02:19;;;;;;;8.17;5.77;;;;;;;;;;5014593;28;20691;-73
2023/06/26 18:05:24;;;;;;;7.33;6.30;;;;;;;;;;5014603;28;20182;-73
2023/06/26 18:08:28;;;;;;;7.33;5.97;;;;;;;;;;5014532;28;20205;-74
2023/06/26 18:11:33;;;;;;;14.43;6.87;;;;;;;;;;5014236;28;20229;-74
2023/06/26 18:14:37;;;;;;;9.00;6.67;;;;;;;;;;5013664;28;20181;-74
2023/06/26 18:17:41;;;;;;;8.87;6.97;;;;;;;;;;5014280;28;20549;-73
2023/06/26 18:20:45;;;;;;;7.90;6.57;;;;;;;;;;5014341;28;20201;-74
2023/06/26 18:23:50;;;;;;;8.30;6.53;;;;;;;;;;5014192;28;20181;-74
2023/06/26 18:26:54;;;;;;;9.67;7.47;;;;;;;;;;5014159;28;20518;-74